Exmouth, United Kingdom
Current Conditions -  °F | °C
As of 10:20 AM on Saturday 22 Nov 2014 (Local Time) from EGTE Reporting Station
Scattered Clouds Scattered Clouds  
Wind Chill: 57°   Ceiling: Unl
Heat Index: 57°   Visibility: 6mi
Dew Point: 55°   Wind: 6mph
Humidity: 94%   Direction: 190°S
Pressure: 29.85"   Gusts: NA
Location:  50.62°N, 3.41°W
Report Text: EGTE 221020Z 19005KT 9999 FEW008 SCT026 14/13 Q1011
Loading
Personal Weather Stations






























Interactive Weather Map New forecast layout! Learn more

10-Day Weather Forecast

Advertisements
Track Severe Weather on mobile